createdAt,value
2023-02-22T00:01:19.579Z,99393.38
2023-02-22T00:03:51.689Z,99402.16
2023-02-22T00:06:23.482Z,99410.97
2023-02-22T00:08:53.462Z,99412.69
2023-02-22T00:11:21.873Z,99409.19
2023-02-22T00:13:51.532Z,99401.28
2023-02-22T00:16:23.791Z,99402.06
2023-02-22T00:18:53.319Z,99402.19
2023-02-22T00:21:22.619Z,99409.19
2023-02-22T00:23:54.673Z,99405.00
2023-02-22T00:26:24.131Z,99404.91
2023-02-22T00:28:55.343Z,99401.38
2023-02-22T00:31:27.354Z,99406.66
2023-02-22T00:33:56.276Z,99405.78
2023-02-22T00:36:25.149Z,99403.09
2023-02-22T00:38:55.726Z,99401.38
2023-02-22T00:41:24.465Z,99403.97
2023-02-22T00:43:53.301Z,99402.34
2023-02-22T00:46:21.837Z,99400.53
2023-02-22T00:48:52.078Z,99402.28
2023-02-22T00:51:20.606Z,99390.00
2023-02-22T00:53:53.402Z,99402.25
2023-02-22T00:56:22.175Z,99397.00
2023-02-22T00:58:51.146Z,99401.41
2023-02-22T01:01:20.854Z,99393.59
2023-02-22T01:03:51.172Z,99398.91
2023-02-22T01:06:20.097Z,99395.75
2023-02-22T01:08:49.918Z,99392.16
2023-02-22T01:11:19.342Z,99389.50
2023-02-22T01:13:48.242Z,99386.03
2023-02-22T01:16:16.814Z,99384.25
2023-02-22T01:18:45.669Z,99383.41
2023-02-22T01:21:15.934Z,99372.94
2023-02-22T01:23:46.208Z,99383.56
2023-02-22T01:26:14.718Z,99381.78
2023-02-22T01:28:43.724Z,99378.13
2023-02-22T01:31:12.661Z,99382.31
2023-02-22T01:33:41.879Z,99373.47
2023-02-22T01:36:11.567Z,99382.16
2023-02-22T01:38:41.902Z,99392.69
2023-02-22T01:41:10.852Z,99389.69
2023-02-22T01:43:40.147Z,99385.63
2023-02-22T01:46:22.197Z,99386.56
2023-02-22T01:48:56.058Z,99386.47
2023-02-22T01:51:30.295Z,99389.19
2023-02-22T01:54:04.535Z,99380.28
2023-02-22T01:56:38.974Z,99385.44
2023-02-22T01:59:11.338Z,99382.47
2023-02-22T02:01:44.766Z,99383.34
2023-02-22T02:04:18.792Z,99382.16
2023-02-22T02:06:49.067Z,99378.59
2023-02-22T02:09:30.387Z,99375.91
2023-02-22T02:12:02.754Z,99380.25
2023-02-22T02:14:33.051Z,99381.72
2023-02-22T02:17:02.550Z,99378.88
2023-02-22T02:19:42.764Z,99382.13
2023-02-22T02:22:34.602Z,99386.41
2023-02-22T02:25:41.710Z,99389.47
2023-02-22T02:28:47.195Z,99384.00
2023-02-22T02:32:12.713Z,99383.78
2023-02-22T02:34:50.572Z,99386.41
2023-02-22T02:37:30.240Z,99389.00
2023-02-22T02:40:04.780Z,99390.00
2023-02-22T02:42:39.722Z,99383.81
2023-02-22T02:45:15.493Z,99387.09
2023-02-22T02:47:48.483Z,99387.88
2023-02-22T02:50:24.281Z,99388.75
2023-02-22T02:52:56.759Z,99392.22
2023-02-22T02:55:25.900Z,99399.16
2023-02-22T02:57:55.752Z,99394.03
2023-02-22T03:00:29.987Z,99397.41
2023-02-22T03:03:15.070Z,99404.16
2023-02-22T03:06:07.124Z,99399.66
2023-02-22T03:08:44.224Z,99405.84
2023-02-22T03:11:19.436Z,99402.41
2023-02-22T03:13:56.795Z,99406.78
2023-02-22T03:16:34.326Z,99405.94
2023-02-22T03:19:09.923Z,99408.56
2023-02-22T03:21:49.084Z,99407.66
2023-02-22T03:24:22.230Z,99411.34
2023-02-22T03:26:58.038Z,99419.22
2023-02-22T03:29:35.632Z,99421.06
2023-02-22T03:32:11.683Z,99416.72
2023-02-22T03:34:45.978Z,99419.41
2023-02-22T03:37:22.050Z,99424.66
2023-02-22T03:39:55.507Z,99423.81
2023-02-22T03:42:30.282Z,99427.41
2023-02-22T03:45:04.679Z,99424.78
2023-02-22T03:47:41.552Z,99427.44
2023-02-22T03:50:15.333Z,99427.66
2023-02-22T03:52:47.530Z,99420.75
2023-02-22T03:55:24.325Z,99428.66
2023-02-22T03:57:57.991Z,99425.16
2023-02-22T04:00:30.787Z,99427.84
2023-02-22T04:02:59.928Z,99429.72
2023-02-22T04:05:28.931Z,99434.13
2023-02-22T04:08:00.309Z,99435.03
2023-02-22T04:10:29.709Z,99435.13
2023-02-22T04:12:58.884Z,99437.84
2023-02-22T04:15:28.018Z,99436.16
2023-02-22T04:18:03.773Z,99437.94
2023-02-22T04:20:34.905Z,99437.13
2023-02-22T04:23:13.209Z,99435.38
2023-02-22T04:25:43.778Z,99431.91
2023-02-22T04:28:18.236Z,99431.91
2023-02-22T04:30:55.126Z,99432.84
2023-02-22T04:33:25.115Z,99432.00
2023-02-22T04:35:54.055Z,99427.69
2023-02-22T04:38:25.995Z,99431.19
2023-02-22T04:40:57.028Z,99432.09
2023-02-22T04:43:25.653Z,99428.59
2023-02-22T04:45:59.249Z,99422.50
2023-02-22T04:48:27.873Z,99421.69
2023-02-22T04:50:56.790Z,99426.88
2023-02-22T04:53:27.680Z,99424.28
2023-02-22T04:55:58.153Z,99421.66
2023-02-22T04:58:26.842Z,99425.13
2023-02-22T05:00:55.755Z,99415.56
2023-02-22T05:03:24.245Z,99417.25
2023-02-22T05:05:53.537Z,99417.28
2023-02-22T05:08:22.151Z,99415.56
2023-02-22T05:10:52.572Z,99417.28
2023-02-22T05:13:21.375Z,99419.13
2023-02-22T05:15:50.174Z,99421.69
2023-02-22T05:18:18.916Z,99417.38
2023-02-22T05:20:47.680Z,99414.75
2023-02-22T05:23:16.155Z,99421.75
2023-02-22T05:25:46.029Z,99427.88
2023-02-22T05:28:17.252Z,99431.31
2023-02-22T05:30:46.322Z,99433.06
2023-02-22T05:33:16.043Z,99427.84
2023-02-22T05:35:46.316Z,99433.97
2023-02-22T05:38:16.090Z,99438.31
2023-02-22T05:40:45.095Z,99437.47
2023-02-22T05:43:15.761Z,99447.00
2023-02-22T05:45:44.795Z,99444.44
2023-02-22T05:48:13.436Z,99449.66
2023-02-22T05:50:44.096Z,99451.41
2023-02-22T05:53:13.364Z,99455.75
2023-02-22T05:55:42.322Z,99455.72
2023-02-22T05:58:10.747Z,99465.25
2023-02-22T06:00:41.043Z,99462.59
2023-02-22T06:03:12.578Z,99468.63
2023-02-22T06:05:42.790Z,99479.91
2023-02-22T06:08:11.605Z,99475.47
2023-02-22T06:10:40.580Z,99482.44
2023-02-22T06:13:09.269Z,99478.84
2023-02-22T06:15:38.186Z,99489.34
2023-02-22T06:18:08.014Z,99482.25
2023-02-22T06:20:37.024Z,99484.81
2023-02-22T06:23:05.844Z,99487.44
2023-02-22T06:25:34.624Z,99484.78
2023-02-22T06:28:03.403Z,99489.06
2023-02-22T06:30:32.445Z,99488.13
2023-02-22T06:33:00.868Z,99499.41
2023-02-22T06:35:31.161Z,99496.59
2023-02-22T06:37:59.807Z,99499.09
2023-02-22T06:40:29.580Z,99499.00
2023-02-22T06:42:59.869Z,99501.53
2023-02-22T06:45:30.216Z,99500.53
2023-02-22T06:47:58.740Z,99506.47
2023-02-22T06:50:30.682Z,99501.94
2023-02-22T06:52:59.922Z,99493.03
2023-02-22T06:55:31.826Z,99502.56
2023-02-22T06:58:00.796Z,99509.44
2023-02-22T07:00:32.211Z,99512.84
2023-02-22T07:03:01.439Z,99512.81
2023-02-22T07:05:31.780Z,99503.88
2023-02-22T07:08:06.174Z,99494.69
2023-02-22T07:10:37.130Z,99498.09
2023-02-22T07:13:07.591Z,99500.78
2023-02-22T07:15:37.320Z,99503.13
2023-02-22T07:18:05.842Z,99509.03
2023-02-22T07:20:36.346Z,99507.25
2023-02-22T07:23:05.855Z,99502.50
2023-02-22T07:25:34.696Z,99505.75
2023-02-22T07:28:03.182Z,99503.66
2023-02-22T07:30:34.388Z,99501.63
2023-02-22T07:33:06.079Z,99504.75
2023-02-22T07:35:37.917Z,99502.63
2023-02-22T07:38:08.562Z,99502.56
2023-02-22T07:40:39.082Z,99499.56
2023-02-22T07:43:16.802Z,99492.00
2023-02-22T07:45:48.127Z,99496.50
2023-02-22T07:48:18.558Z,99499.78
2023-02-22T07:50:49.437Z,99488.50
2023-02-22T07:53:20.637Z,99489.94
2023-02-22T07:55:51.150Z,99490.56
2023-02-22T07:58:21.505Z,99496.97
2023-02-22T08:00:50.327Z,99490.00
2023-02-22T08:03:21.305Z,99488.72
2023-02-22T08:05:53.933Z,99489.00
2023-02-22T08:08:23.014Z,99493.78
2023-02-22T08:10:53.425Z,99491.78
2023-02-22T08:13:23.258Z,99492.25
2023-02-22T08:15:53.947Z,99489.63
2023-02-22T08:18:23.667Z,99493.44
2023-02-22T08:20:55.071Z,99491.97
2023-02-22T08:23:27.168Z,99481.50
2023-02-22T08:25:56.057Z,99483.66
2023-02-22T08:28:25.754Z,99486.63
2023-02-22T08:30:54.906Z,99487.75
2023-02-22T08:33:23.830Z,99495.09
2023-02-22T08:35:54.445Z,99489.47
2023-02-22T08:38:25.803Z,99480.19
2023-02-22T08:40:55.488Z,99494.88
2023-02-22T08:43:25.165Z,99488.69
2023-02-22T08:45:57.217Z,99489.72
2023-02-22T08:48:26.185Z,99501.69
2023-02-22T08:50:56.714Z,99495.16
2023-02-22T08:53:25.223Z,99492.91
2023-02-22T08:55:54.403Z,99497.69
2023-02-22T08:58:22.980Z,99487.06
2023-02-22T09:00:52.227Z,99489.94
2023-02-22T09:03:20.807Z,99494.22
2023-02-22T09:05:49.978Z,99504.47
2023-02-22T09:08:19.851Z,99500.84
2023-02-22T09:10:48.628Z,99496.84
2023-02-22T09:13:17.072Z,99498.28
2023-02-22T09:15:46.337Z,99492.22
2023-02-22T09:18:18.130Z,99490.94
2023-02-22T09:20:46.974Z,99494.25
2023-02-22T09:23:15.485Z,99493.16
2023-02-22T09:25:45.633Z,99490.28
2023-02-22T09:28:14.581Z,99495.69
2023-02-22T09:30:44.420Z,99492.78
2023-02-22T09:33:15.202Z,99485.94
2023-02-22T09:35:46.722Z,99481.88
2023-02-22T09:38:17.847Z,99483.19
2023-02-22T09:40:51.891Z,99485.16
2023-02-22T09:43:35.771Z,99480.63
2023-02-22T09:46:13.863Z,99487.72
2023-02-22T09:48:57.901Z,99484.69
2023-02-22T09:51:32.015Z,99483.88
2023-02-22T09:54:03.360Z,99470.91
2023-02-22T09:56:35.151Z,99463.69
2023-02-22T09:59:07.938Z,99463.03
2023-02-22T10:01:43.524Z,99459.00
2023-02-22T10:04:19.655Z,99452.13
2023-02-22T10:07:06.878Z,99452.75
2023-02-22T10:09:42.780Z,99452.38
2023-02-22T10:12:21.576Z,99452.56
2023-02-22T10:15:18.566Z,99446.00
2023-02-22T10:17:53.910Z,99445.25
2023-02-22T10:20:37.837Z,99446.69
2023-02-22T10:23:18.148Z,99451.88
2023-02-22T10:25:53.957Z,99438.25
2023-02-22T10:28:31.036Z,99435.09
2023-02-22T10:31:05.276Z,99441.38
2023-02-22T10:33:39.778Z,99428.06
2023-02-22T10:36:19.322Z,99429.56
2023-02-22T10:38:55.447Z,99416.09
2023-02-22T10:41:30.395Z,99433.66
2023-02-22T10:44:00.909Z,99422.16
2023-02-22T10:46:32.854Z,99412.03
2023-02-22T10:49:07.472Z,99417.13
2023-02-22T10:51:36.703Z,99414.22
2023-02-22T10:54:26.711Z,99411.59
2023-02-22T10:56:57.438Z,99410.41
2023-02-22T10:59:34.469Z,99397.09
2023-02-22T11:02:17.928Z,99398.16
2023-02-22T11:04:49.779Z,99400.09
2023-02-22T11:07:24.034Z,99390.81
2023-02-22T11:09:55.955Z,99387.28
2023-02-22T11:12:30.463Z,99382.63
2023-02-22T11:15:29.596Z,99379.31
2023-02-22T11:18:01.935Z,99385.63
2023-02-22T11:20:36.016Z,99379.06
2023-02-22T11:23:08.302Z,99368.41
2023-02-22T11:25:42.324Z,99364.09
2023-02-22T11:28:14.995Z,99378.19
2023-02-22T11:30:53.560Z,99363.66
2023-02-22T11:33:24.899Z,99363.41
2023-02-22T11:35:55.753Z,99356.53
2023-02-22T11:38:26.812Z,99357.03
2023-02-22T11:41:09.265Z,99350.22
2023-02-22T11:43:38.128Z,99349.13
2023-02-22T11:46:13.823Z,99347.09
2023-02-22T11:48:55.116Z,99341.28
2023-02-22T11:51:39.399Z,99339.00
2023-02-22T11:54:36.489Z,99341.28
2023-02-22T11:57:17.176Z,99337.97
2023-02-22T12:00:02.093Z,99332.63
2023-02-22T12:03:01.386Z,99330.50
2023-02-22T12:05:44.291Z,99324.09
2023-02-22T12:08:26.987Z,99323.59
2023-02-22T12:11:10.173Z,99321.72
2023-02-22T12:13:53.574Z,99318.72
2023-02-22T12:16:29.937Z,99318.13
2023-02-22T12:19:16.382Z,99318.59
2023-02-22T12:21:52.035Z,99321.16
2023-02-22T12:24:24.723Z,99322.34
2023-02-22T12:27:01.648Z,99316.81
2023-02-22T12:29:37.824Z,99314.75
2023-02-22T12:32:12.808Z,99308.69
2023-02-22T12:34:47.264Z,99313.19
2023-02-22T12:37:21.458Z,99310.22
2023-02-22T12:40:00.167Z,99306.88
2023-02-22T12:42:36.467Z,99307.31
2023-02-22T12:45:16.957Z,99304.63
2023-02-22T12:47:55.806Z,99301.25
2023-02-22T12:50:34.513Z,99300.34
2023-02-22T12:53:14.086Z,99305.53
2023-02-22T12:55:48.846Z,99299.94
2023-02-22T12:58:25.971Z,99305.66
2023-02-22T13:01:02.302Z,99292.13
2023-02-22T13:03:37.293Z,99289.75
2023-02-22T13:06:25.890Z,99293.63
2023-02-22T13:09:12.332Z,99289.28
2023-02-22T13:11:48.088Z,99292.50
2023-02-22T13:14:32.627Z,99290.25
2023-02-22T13:17:08.147Z,99300.47
2023-02-22T13:19:48.267Z,99295.88
2023-02-22T13:22:25.590Z,99287.78
2023-02-22T13:25:03.357Z,99293.06
2023-02-22T13:27:41.547Z,99281.44
2023-02-22T13:30:20.906Z,99289.56
2023-02-22T13:33:18.119Z,99278.09
2023-02-22T13:36:15.334Z,99281.00
2023-02-22T13:39:18.375Z,99278.94
2023-02-22T13:42:19.600Z,99275.19
2023-02-22T13:45:18.657Z,99274.78
2023-02-22T13:48:10.871Z,99274.63
2023-02-22T13:51:07.784Z,99273.16
2023-02-22T13:53:44.916Z,99269.59
2023-02-22T13:56:16.639Z,99272.09
2023-02-22T13:58:56.802Z,99281.19
2023-02-22T14:01:39.987Z,99284.25
2023-02-22T14:04:37.250Z,99285.22
2023-02-22T14:07:57.004Z,99271.94
2023-02-22T14:10:50.533Z,99269.00
2023-02-22T14:13:22.655Z,99270.66
2023-02-22T14:16:17.881Z,99267.25
2023-02-22T14:18:50.505Z,99272.47
2023-02-22T14:21:21.448Z,99270.19
2023-02-22T14:23:52.284Z,99265.31
2023-02-22T14:26:25.883Z,99276.88
2023-02-22T14:29:01.582Z,99271.50
2023-02-22T14:31:37.373Z,99273.25
2023-02-22T14:34:10.533Z,99270.97
2023-02-22T14:36:53.194Z,99273.38
2023-02-22T14:39:32.117Z,99271.34
2023-02-22T14:42:06.524Z,99270.25
2023-02-22T14:44:43.252Z,99261.69
2023-02-22T14:47:21.015Z,99266.09
2023-02-22T14:49:54.870Z,99264.81
2023-02-22T14:52:27.999Z,99263.81
2023-02-22T14:55:04.632Z,99270.69
2023-02-22T14:57:44.763Z,99260.75
2023-02-22T15:00:30.698Z,99271.25
2023-02-22T15:03:00.805Z,99257.91
2023-02-22T15:05:38.419Z,99259.19
2023-02-22T15:08:09.442Z,99260.06
2023-02-22T15:10:43.912Z,99261.41
2023-02-22T15:13:19.405Z,99255.81
2023-02-22T15:15:55.637Z,99254.59
2023-02-22T15:18:30.213Z,99260.28
2023-02-22T15:21:06.812Z,99264.19
2023-02-22T15:23:47.041Z,99256.91
2023-02-22T15:26:21.735Z,99258.69
2023-02-22T15:28:55.703Z,99256.34
2023-02-22T15:31:30.985Z,99260.63
2023-02-22T15:34:11.232Z,99263.47
2023-02-22T15:36:40.217Z,99260.72
2023-02-22T15:39:20.672Z,99262.25
2023-02-22T15:41:49.735Z,99261.06
2023-02-22T15:44:23.580Z,99257.19
2023-02-22T15:46:56.698Z,99263.25
2023-02-22T15:49:25.900Z,99263.16
2023-02-22T15:52:08.101Z,99258.41
2023-02-22T15:54:43.891Z,99256.41
2023-02-22T15:57:17.224Z,99261.06
2023-02-22T15:59:51.628Z,99260.50
2023-02-22T16:02:41.740Z,99261.19
2023-02-22T16:05:13.184Z,99264.13
2023-02-22T16:07:46.112Z,99264.06
2023-02-22T16:10:28.673Z,99271.41
2023-02-22T16:13:14.421Z,99262.63
2023-02-22T16:15:56.070Z,99258.47
2023-02-22T16:18:31.269Z,99255.94
2023-02-22T16:21:02.216Z,99256.13
2023-02-22T16:23:33.631Z,99259.69
2023-02-22T16:26:08.156Z,99257.91
2023-02-22T16:28:37.038Z,99259.00
2023-02-22T16:31:05.857Z,99263.06
2023-02-22T16:33:36.231Z,99260.84
2023-02-22T16:36:08.186Z,99260.00
2023-02-22T16:38:39.654Z,99264.69
2023-02-22T16:41:08.753Z,99266.47
2023-02-22T16:43:38.545Z,99272.69
2023-02-22T16:46:07.769Z,99275.31
2023-02-22T16:48:38.631Z,99280.81
2023-02-22T16:51:18.353Z,99274.88
2023-02-22T16:53:49.029Z,99280.09
2023-02-22T16:56:20.299Z,99279.72
2023-02-22T16:58:53.030Z,99284.50
2023-02-22T17:01:23.411Z,99285.59
2023-02-22T17:03:54.928Z,99284.91
2023-02-22T17:06:23.546Z,99284.69
2023-02-22T17:08:52.683Z,99285.44
2023-02-22T17:11:21.693Z,99284.50
2023-02-22T17:13:51.924Z,99285.66
2023-02-22T17:16:20.988Z,99284.75
2023-02-22T17:18:50.284Z,99283.91
2023-02-22T17:21:20.314Z,99288.47
2023-02-22T17:23:49.239Z,99284.69
2023-02-22T17:26:19.167Z,99285.34
2023-02-22T17:28:48.372Z,99289.16
2023-02-22T17:31:22.950Z,99283.03
2023-02-22T17:33:52.568Z,99286.81
2023-02-22T17:36:23.625Z,99286.19
2023-02-22T17:38:53.302Z,99287.84
2023-02-22T17:41:22.676Z,99289.28
2023-02-22T17:43:51.866Z,99284.78
2023-02-22T17:46:20.691Z,99283.88
2023-02-22T17:48:49.729Z,99277.03
2023-02-22T17:51:18.367Z,99287.78
2023-02-22T17:53:48.974Z,99280.00
2023-02-22T17:56:20.296Z,99281.66
2023-02-22T17:58:53.321Z,99273.94
2023-02-22T18:01:25.294Z,99269.59
2023-02-22T18:03:55.807Z,99271.63
2023-02-22T18:06:27.263Z,99265.38
2023-02-22T18:08:59.295Z,99265.34
2023-02-22T18:11:32.619Z,99267.25
2023-02-22T18:14:01.633Z,99268.09
2023-02-22T18:16:30.656Z,99266.31
2023-02-22T18:19:01.791Z,99270.41
2023-02-22T18:21:30.422Z,99260.72
2023-02-22T18:24:00.801Z,99270.41
2023-02-22T18:26:29.754Z,99268.25
2023-02-22T18:29:00.528Z,99257.84
2023-02-22T18:31:29.328Z,99260.50
2023-02-22T18:33:58.647Z,99264.88
2023-02-22T18:36:27.271Z,99260.38
2023-02-22T18:38:56.540Z,99262.19
2023-02-22T18:41:26.655Z,99254.63
2023-02-22T18:43:59.069Z,99258.16
2023-02-22T18:46:30.044Z,99263.00
2023-02-22T18:48:59.610Z,99258.56
2023-02-22T18:51:29.893Z,99250.03
2023-02-22T18:54:01.055Z,99252.88
2023-02-22T18:56:31.240Z,99252.75
2023-02-22T18:59:02.128Z,99259.91
2023-02-22T19:01:35.750Z,99255.00
2023-02-22T19:04:04.629Z,99268.09
2023-02-22T19:06:34.984Z,99254.78
2023-02-22T19:09:08.610Z,99262.97
2023-02-22T19:11:40.558Z,99255.09
2023-02-22T19:14:09.789Z,99261.06
2023-02-22T19:16:38.770Z,99256.91
2023-02-22T19:19:07.692Z,99268.53
2023-02-22T19:21:36.616Z,99265.13
2023-02-22T19:24:06.050Z,99262.47
2023-02-22T19:26:34.896Z,99271.38
2023-02-22T19:29:08.623Z,99271.53
2023-02-22T19:31:38.399Z,99268.78
2023-02-22T19:34:10.179Z,99265.28
2023-02-22T19:36:39.917Z,99267.91
2023-02-22T19:39:09.497Z,99267.38
2023-02-22T19:41:38.802Z,99268.25
2023-02-22T19:44:09.362Z,99278.50
2023-02-22T19:46:38.348Z,99281.84
2023-02-22T19:49:08.164Z,99274.56
2023-02-22T19:51:37.585Z,99274.53
2023-02-22T19:54:09.760Z,99271.84
2023-02-22T19:56:39.733Z,99275.38
2023-02-22T19:59:13.759Z,99278.84
2023-02-22T20:01:44.811Z,99275.34
2023-02-22T20:04:18.283Z,99277.97
2023-02-22T20:06:48.582Z,99278.88
2023-02-22T20:09:19.796Z,99285.06
2023-02-22T20:11:49.777Z,99279.69
2023-02-22T20:14:23.487Z,99278.72
2023-02-22T20:16:52.902Z,99280.63
2023-02-22T20:19:22.673Z,99278.09
2023-02-22T20:21:52.412Z,99282.47
2023-02-22T20:24:21.468Z,99279.94
2023-02-22T20:26:50.563Z,99278.19
2023-02-22T20:29:21.380Z,99283.44
2023-02-22T20:31:53.694Z,99280.91
2023-02-22T20:34:25.109Z,99282.72
2023-02-22T20:36:54.696Z,99277.53
2023-02-22T20:39:23.482Z,99279.31
2023-02-22T20:41:52.649Z,99280.38
2023-02-22T20:44:23.334Z,99278.69
2023-02-22T20:46:51.934Z,99277.84
2023-02-22T20:49:21.533Z,99286.63
2023-02-22T20:51:50.779Z,99279.78
2023-02-22T20:54:19.740Z,99281.44
2023-02-22T20:56:49.529Z,99274.50
2023-02-22T20:59:20.454Z,99281.59
2023-02-22T21:01:53.070Z,99278.13
2023-02-22T21:04:23.365Z,99269.66
2023-02-22T21:06:53.097Z,99276.69
2023-02-22T21:09:22.533Z,99275.09
2023-02-22T21:11:51.514Z,99271.81
2023-02-22T21:14:20.685Z,99276.31
2023-02-22T21:16:52.841Z,99269.44
2023-02-22T21:19:26.312Z,99273.53
2023-02-22T21:21:56.605Z,99270.16
2023-02-22T21:24:26.881Z,99270.25
2023-02-22T21:26:58.617Z,99271.97
2023-02-22T21:29:28.492Z,99264.91
2023-02-22T21:31:58.569Z,99270.16
2023-02-22T21:34:27.635Z,99272.69
2023-02-22T21:36:56.883Z,99263.03
2023-02-22T21:39:28.687Z,99265.69
2023-02-22T21:42:00.587Z,99262.22
2023-02-22T21:44:30.375Z,99264.75
2023-02-22T21:47:00.334Z,99264.69
2023-02-22T21:49:29.426Z,99264.69
2023-02-22T21:51:58.136Z,99262.03
2023-02-22T21:54:28.045Z,99257.78
2023-02-22T21:56:56.617Z,99257.69
2023-02-22T21:59:25.794Z,99255.34
2023-02-22T22:01:56.651Z,99261.56
2023-02-22T22:04:29.622Z,99252.72
2023-02-22T22:06:59.881Z,99251.25
2023-02-22T22:09:33.275Z,99252.94
2023-02-22T22:12:05.198Z,99249.59
2023-02-22T22:14:35.664Z,99252.31
2023-02-22T22:17:07.905Z,99248.72
2023-02-22T22:19:40.559Z,99253.09
2023-02-22T22:22:09.933Z,99251.97
2023-02-22T22:24:41.539Z,99252.75
2023-02-22T22:27:13.007Z,99250.94
2023-02-22T22:29:43.681Z,99256.94
2023-02-22T22:32:12.531Z,99249.88
2023-02-22T22:34:43.622Z,99255.09
2023-02-22T22:37:13.255Z,99243.94
2023-02-22T22:39:42.512Z,99245.69
2023-02-22T22:42:11.273Z,99249.09
2023-02-22T22:44:42.217Z,99253.47
2023-02-22T22:47:12.511Z,99248.09
2023-02-22T22:49:43.001Z,99247.88
2023-02-22T22:52:14.018Z,99251.44
2023-02-22T22:54:43.828Z,99244.34
2023-02-22T22:57:12.813Z,99245.31
2023-02-22T22:59:41.792Z,99248.00
2023-02-22T23:02:11.512Z,99240.22
2023-02-22T23:04:42.161Z,99240.94
2023-02-22T23:07:10.981Z,99244.34
2023-02-22T23:09:40.508Z,99235.72
2023-02-22T23:12:09.830Z,99236.47
2023-02-22T23:14:44.028Z,99243.53
2023-02-22T23:17:16.127Z,99234.91
2023-02-22T23:19:46.665Z,99240.00
2023-02-22T23:22:15.498Z,99240.94
2023-02-22T23:24:45.550Z,99242.75
2023-02-22T23:27:14.544Z,99255.06
2023-02-22T23:29:46.812Z,99248.81
2023-02-22T23:32:15.876Z,99247.88
2023-02-22T23:34:49.655Z,99249.47
2023-02-22T23:37:20.806Z,99250.28
2023-02-22T23:39:50.939Z,99247.66
2023-02-22T23:42:19.931Z,99235.34
2023-02-22T23:44:49.363Z,99231.06
2023-02-22T23:47:17.857Z,99237.03
2023-02-22T23:49:49.628Z,99233.47
2023-02-22T23:52:24.101Z,99227.47
2023-02-22T23:54:54.090Z,99229.38
2023-02-22T23:57:24.710Z,99237.31
2023-02-22T23:59:53.579Z,99221.66
